Time;durP1;ratioP1;P1;durP2;ratioP2;P2;SDS_P1;SDS_P2;PMS_P1;PMS_P2;Temp;Humidity;BMP_temperature;BMP_pressure;BME280_temperature;BME280_humidity;BME280_pressure;Samples;Min_cycle;Max_cycle;Signal;HPM_P1;HPM_P2
2023/10/23 00:00:21;;;;;;;1.2;1.1;;;;;;;;;;;;;
2023/10/23 00:02:47;;;;;;;1.7;1;;;;;;;;;;;;;
2023/10/23 00:05:14;;;;;;;2;1.3;;;;;;;;;;;;;
2023/10/23 00:07:39;;;;;;;1.1;1;;;;;;;;;;;;;
2023/10/23 00:10:05;;;;;;;1.8;1.2;;;;;;;;;;;;;
2023/10/23 00:12:31;;;;;;;1.4;1.1;;;;;;;;;;;;;
2023/10/23 00:14:56;;;;;;;1.9;1.1;;;;;;;;;;;;;
2023/10/23 00:17:21;;;;;;;1;1;;;;;;;;;;;;;
2023/10/23 00:19:46;;;;;;;1.5;1.1;;;;;;;;;;;;;
2023/10/23 00:22:13;;;;;;;0.8;0.7;;;;;;;;;;;;;
2023/10/23 00:24:38;;;;;;;2.1;1.3;;;;;;;;;;;;;
2023/10/23 00:27:07;;;;;;;1.8;0.9;;;;;;;;;;;;;
2023/10/23 00:29:32;;;;;;;1.1;1;;;;;;;;;;;;;
2023/10/23 00:31:58;;;;;;;1.8;1;;;;;;;;;;;;;
2023/10/23 00:34:22;;;;;;;1.7;1.1;;;;;;;;;;;;;
2023/10/23 00:36:50;;;;;;;1.5;1;;;;;;;;;;;;;
2023/10/23 00:39:15;;;;;;;1.7;1.2;;;;;;;;;;;;;
2023/10/23 00:41:42;;;;;;;1.1;1;;;;;;;;;;;;;
2023/10/23 00:44:05;;;;;;;1.4;1;;;;;;;;;;;;;
2023/10/23 00:46:32;;;;;;;0.9;0.8;;;;;;;;;;;;;
2023/10/23 00:48:58;;;;;;;1.2;1.1;;;;;;;;;;;;;
2023/10/23 00:51:23;;;;;;;0.8;0.8;;;;;;;;;;;;;
2023/10/23 00:53:48;;;;;;;2.4;0.9;;;;;;;;;;;;;
2023/10/23 00:56:17;;;;;;;0.9;0.9;;;;;;;;;;;;;
2023/10/23 00:58:41;;;;;;;1.3;1.2;;;;;;;;;;;;;
2023/10/23 01:01:06;;;;;;;1.5;1;;;;;;;;;;;;;
2023/10/23 01:03:31;;;;;;;1;0.9;;;;;;;;;;;;;
2023/10/23 01:05:57;;;;;;;0.8;0.8;;;;;;;;;;;;;
2023/10/23 01:08:22;;;;;;;1.3;0.9;;;;;;;;;;;;;
2023/10/23 01:10:50;;;;;;;1.2;1.1;;;;;;;;;;;;;
2023/10/23 01:13:16;;;;;;;0.9;0.9;;;;;;;;;;;;;
2023/10/23 01:15:41;;;;;;;1;1;;;;;;;;;;;;;
2023/10/23 01:18:06;;;;;;;0.9;0.9;;;;;;;;;;;;;
2023/10/23 01:20:35;;;;;;;1.9;1.2;;;;;;;;;;;;;
2023/10/23 01:23:00;;;;;;;0.8;0.8;;;;;;;;;;;;;
2023/10/23 01:25:26;;;;;;;0.8;0.8;;;;;;;;;;;;;
2023/10/23 01:27:51;;;;;;;1.1;0.9;;;;;;;;;;;;;
2023/10/23 01:30:17;;;;;;;1;0.7;;;;;;;;;;;;;
2023/10/23 01:32:42;;;;;;;1.2;0.7;;;;;;;;;;;;;
2023/10/23 01:35:07;;;;;;;0.9;0.8;;;;;;;;;;;;;
2023/10/23 01:37:33;;;;;;;1.1;0.9;;;;;;;;;;;;;
2023/10/23 01:39:59;;;;;;;1.1;0.9;;;;;;;;;;;;;
2023/10/23 01:42:28;;;;;;;1;0.8;;;;;;;;;;;;;
2023/10/23 01:44:49;;;;;;;1;0.8;;;;;;;;;;;;;
2023/10/23 01:47:15;;;;;;;1.1;0.9;;;;;;;;;;;;;
2023/10/23 01:49:40;;;;;;;0.8;0.8;;;;;;;;;;;;;
2023/10/23 01:52:05;;;;;;;0.7;0.7;;;;;;;;;;;;;
2023/10/23 01:54:30;;;;;;;0.8;0.7;;;;;;;;;;;;;
2023/10/23 01:56:57;;;;;;;0.7;0.6;;;;;;;;;;;;;
2023/10/23 01:59:22;;;;;;;0.6;0.6;;;;;;;;;;;;;
2023/10/23 02:01:49;;;;;;;0.9;0.6;;;;;;;;;;;;;
2023/10/23 02:04:14;;;;;;;0.6;0.6;;;;;;;;;;;;;
2023/10/23 02:06:40;;;;;;;0.6;0.6;;;;;;;;;;;;;
2023/10/23 02:09:05;;;;;;;2.3;0.7;;;;;;;;;;;;;
2023/10/23 02:11:32;;;;;;;1.1;0.9;;;;;;;;;;;;;
2023/10/23 02:13:56;;;;;;;0.9;0.7;;;;;;;;;;;;;
2023/10/23 02:16:23;;;;;;;0.7;0.7;;;;;;;;;;;;;
2023/10/23 02:18:48;;;;;;;0.8;0.8;;;;;;;;;;;;;
2023/10/23 02:21:15;;;;;;;0.5;0.5;;;;;;;;;;;;;
2023/10/23 02:23:39;;;;;;;1;0.7;;;;;;;;;;;;;
2023/10/23 02:26:05;;;;;;;0.5;0.5;;;;;;;;;;;;;
2023/10/23 02:28:30;;;;;;;0.7;0.7;;;;;;;;;;;;;
2023/10/23 02:30:56;;;;;;;7.4;1.1;;;;;;;;;;;;;
2023/10/23 02:33:21;;;;;;;1.3;0.7;;;;;;;;;;;;;
2023/10/23 02:35:48;;;;;;;0.6;0.6;;;;;;;;;;;;;
2023/10/23 02:38:14;;;;;;;1.1;0.7;;;;;;;;;;;;;
2023/10/23 02:40:40;;;;;;;1.7;0.8;;;;;;;;;;;;;
2023/10/23 02:43:05;;;;;;;0.6;0.6;;;;;;;;;;;;;
2023/10/23 02:45:31;;;;;;;0.7;0.7;;;;;;;;;;;;;
2023/10/23 02:47:56;;;;;;;0.7;0.7;;;;;;;;;;;;;
2023/10/23 02:50:22;;;;;;;1;0.8;;;;;;;;;;;;;
2023/10/23 02:52:49;;;;;;;1.4;0.6;;;;;;;;;;;;;
2023/10/23 02:55:15;;;;;;;0.7;0.7;;;;;;;;;;;;;
2023/10/23 02:57:41;;;;;;;0.9;0.7;;;;;;;;;;;;;
2023/10/23 03:00:07;;;;;;;0.6;0.6;;;;;;;;;;;;;
2023/10/23 03:02:35;;;;;;;0.5;0.5;;;;;;;;;;;;;
2023/10/23 03:04:59;;;;;;;0.7;0.7;;;;;;;;;;;;;
2023/10/23 03:07:25;;;;;;;0.7;0.7;;;;;;;;;;;;;
2023/10/23 03:09:50;;;;;;;0.8;0.7;;;;;;;;;;;;;
2023/10/23 03:12:16;;;;;;;0.7;0.7;;;;;;;;;;;;;
2023/10/23 03:14:41;;;;;;;1.9;0.9;;;;;;;;;;;;;
2023/10/23 03:17:07;;;;;;;0.8;0.7;;;;;;;;;;;;;
2023/10/23 03:19:31;;;;;;;1.1;0.7;;;;;;;;;;;;;
2023/10/23 03:21:57;;;;;;;0.6;0.6;;;;;;;;;;;;;
2023/10/23 03:24:22;;;;;;;2;1.9;;;;;;;;;;;;;
2023/10/23 03:26:50;;;;;;;0.9;0.9;;;;;;;;;;;;;
2023/10/23 03:29:15;;;;;;;0.6;0.6;;;;;;;;;;;;;
2023/10/23 03:31:40;;;;;;;0.7;0.7;;;;;;;;;;;;;
2023/10/23 03:34:06;;;;;;;1.4;0.8;;;;;;;;;;;;;
2023/10/23 03:36:31;;;;;;;0.9;0.9;;;;;;;;;;;;;
2023/10/23 03:38:57;;;;;;;0.8;0.8;;;;;;;;;;;;;
2023/10/23 03:41:22;;;;;;;1.1;0.9;;;;;;;;;;;;;
2023/10/23 03:43:47;;;;;;;1.1;0.9;;;;;;;;;;;;;
2023/10/23 03:46:14;;;;;;;1.1;1;;;;;;;;;;;;;
2023/10/23 03:48:40;;;;;;;1.7;1.2;;;;;;;;;;;;;
2023/10/23 03:51:05;;;;;;;2.5;1.3;;;;;;;;;;;;;
2023/10/23 03:53:30;;;;;;;2.6;1.7;;;;;;;;;;;;;
2023/10/23 03:55:59;;;;;;;1.2;1;;;;;;;;;;;;;
2023/10/23 03:58:24;;;;;;;1.1;0.9;;;;;;;;;;;;;
2023/10/23 04:02:36;;;;;;;1.3;0.9;;;;;;;9.41;94.59863;935.0522;;;;
2023/10/23 04:05:03;;;;;;;2.1;1.5;;;;;;;9.41;94.57715;935.1027;;;;
2023/10/23 04:07:28;;;;;;;1;0.9;;;;;;;9.26;94.85156;935.1074;;;;
2023/10/23 04:10:01;;;;;;;0.9;0.8;;;;;;;9.21;95.29492;935.1772;;;;
2023/10/23 04:12:26;;;;;;;1.5;0.9;;;;;;;9.22;95.49219;935.1483;;;;
2023/10/23 04:14:51;;;;;;;1.3;0.8;;;;;;;9.25;95.55469;935.0994;;;;
2023/10/23 04:17:16;;;;;;;0.9;0.9;;;;;;;9.33;95.66406;935.0834;;;;
2023/10/23 04:19:43;;;;;;;1.7;1.4;;;;;;;9.44;94.9248;935.0631;;;;
2023/10/23 04:22:08;;;;;;;1.5;1.3;;;;;;;9.54;94.29785;934.9701;;;;
2023/10/23 04:24:33;;;;;;;1.4;1.1;;;;;;;9.54;93.9668;934.9193;;;;
2023/10/23 04:27:00;;;;;;;1.3;1.2;;;;;;;9.57;93.53027;934.9442;;;;
2023/10/23 04:29:32;;;;;;;2.7;1.6;;;;;;;9.54;93.8418;934.9797;;;;
2023/10/23 04:32:00;;;;;;;1.4;1.3;;;;;;;9.58;93.55371;934.9863;;;;
2023/10/23 04:34:26;;;;;;;1.3;1.2;;;;;;;9.59;93.375;934.9808;;;;
2023/10/23 04:36:55;;;;;;;1.4;1.1;;;;;;;9.47;94.00684;935.0363;;;;
2023/10/23 04:39:24;;;;;;;1.4;0.9;;;;;;;9.38;94.93555;935.0107;;;;
2023/10/23 04:41:51;;;;;;;1.4;1.2;;;;;;;9.4;94.88086;934.9734;;;;
2023/10/23 04:44:19;;;;;;;2.3;1.3;;;;;;;9.37;94.98926;934.9097;;;;
2023/10/23 04:46:52;;;;;;;1.3;1.2;;;;;;;9.45;95.04102;934.9274;;;;
2023/10/23 04:49:19;;;;;;;2.3;2;;;;;;;9.51;94.53125;934.9087;;;;
2023/10/23 04:51:44;;;;;;;4.4;2.5;;;;;;;9.49;94.44531;934.8903;;;;
2023/10/23 04:54:14;;;;;;;2.2;1.5;;;;;;;9.42;94.82813;934.8666;;;;
2023/10/23 04:56:43;;;;;;;2.3;1.3;;;;;;;9.43;94.74121;934.8469;;;;
2023/10/23 04:59:07;;;;;;;2.3;1.7;;;;;;;9.49;94.42285;934.8164;;;;
2023/10/23 05:01:37;;;;;;;1.4;1.3;;;;;;;9.5;94.54004;934.9047;;;;
2023/10/23 05:04:06;;;;;;;1.5;1.4;;;;;;;9.51;94.36914;934.9063;;;;
2023/10/23 05:06:31;;;;;;;1.8;1.1;;;;;;;9.44;94.48047;934.8446;;;;
2023/10/23 05:08:58;;;;;;;1.2;1.2;;;;;;;9.32;94.99023;934.7925;;;;
2023/10/23 05:11:24;;;;;;;1.3;1.2;;;;;;;9.34;95.26563;934.8339;;;;
2023/10/23 05:13:50;;;;;;;1.3;0.9;;;;;;;9.37;95.2959;934.7142;;;;
2023/10/23 05:16:16;;;;;;;2.4;1.3;;;;;;;9.49;95.02637;934.7123;;;;
2023/10/23 05:18:45;;;;;;;1.3;1;;;;;;;9.53;94.44336;934.7078;;;;
2023/10/23 05:21:10;;;;;;;1.7;1;;;;;;;9.52;94.44141;934.6855;;;;
2023/10/23 05:23:39;;;;;;;1.2;1;;;;;;;9.38;94.85449;934.7508;;;;
2023/10/23 05:26:04;;;;;;;0.6;0.6;;;;;;;9.28;95.50586;934.808;;;;
2023/10/23 05:28:31;;;;;;;1;0.7;;;;;;;9.25;96.14453;934.7132;;;;
2023/10/23 05:30:57;;;;;;;0.8;0.8;;;;;;;9.27;96.28711;934.7802;;;;
2023/10/23 05:33:25;;;;;;;1.2;0.8;;;;;;;9.2;96.47656;934.7483;;;;
2023/10/23 05:35:51;;;;;;;0.8;0.8;;;;;;;9.08;96.65527;934.7456;;;;
2023/10/23 05:38:16;;;;;;;1.8;1.2;;;;;;;9.04;97.16797;934.7794;;;;
2023/10/23 05:40:45;;;;;;;1.2;1;;;;;;;9;97.46875;934.7851;;;;
2023/10/23 05:43:17;;;;;;;1.2;1;;;;;;;9.12;97.20898;934.7395;;;;
2023/10/23 05:45:45;;;;;;;1.1;1;;;;;;;9.26;96.04688;934.6585;;;;
2023/10/23 05:48:10;;;;;;;1;0.7;;;;;;;9.25;95.68164;934.7458;;;;
2023/10/23 05:50:43;;;;;;;2.1;1;;;;;;;9.23;96.27734;934.7877;;;;
2023/10/23 05:53:09;;;;;;;1.3;1;;;;;;;9.35;95.94141;934.8602;;;;
2023/10/23 05:55:35;;;;;;;1.4;1.2;;;;;;;9.43;95.31055;934.9637;;;;
2023/10/23 05:58:07;;;;;;;2.7;1.6;;;;;;;9.55;94.85547;934.975;;;;
2023/10/23 06:00:32;;;;;;;1.6;1;;;;;;;9.53;94.97949;934.9645;;;;
2023/10/23 06:03:03;;;;;;;1.4;1.2;;;;;;;9.52;95.07715;934.9676;;;;
2023/10/23 06:05:32;;;;;;;1.3;1.2;;;;;;;9.58;94.71582;934.9537;;;;
2023/10/23 06:08:03;;;;;;;2;1.7;;;;;;;9.58;94.52148;934.941;;;;
2023/10/23 06:10:34;;;;;;;2;1.7;;;;;;;9.57;94.50879;935.0483;;;;
2023/10/23 06:12:59;;;;;;;3.5;2.1;;;;;;;9.59;94.61719;934.9705;;;;
2023/10/23 06:15:24;;;;;;;2.5;1.9;;;;;;;9.65;94.13867;935.0746;;;;
2023/10/23 06:17:54;;;;;;;2.3;1.9;;;;;;;9.67;94.08594;935.0278;;;;
2023/10/23 06:20:19;;;;;;;1.8;1.5;;;;;;;9.69;93.72754;935.1211;;;;
2023/10/23 06:22:46;;;;;;;1.7;1.3;;;;;;;9.6;94.00195;935.0604;;;;
2023/10/23 06:25:11;;;;;;;1.4;1.2;;;;;;;9.56;94.44043;934.9481;;;;
2023/10/23 06:27:39;;;;;;;2;1.3;;;;;;;9.48;95.22949;934.9656;;;;
2023/10/23 06:30:04;;;;;;;2;1.1;;;;;;;9.63;95.2041;934.8527;;;;
2023/10/23 06:32:31;;;;;;;1.2;1.1;;;;;;;9.8;94.75391;934.834;;;;
2023/10/23 06:34:56;;;;;;;1.5;1;;;;;;;9.97;94.12988;934.8568;;;;
2023/10/23 06:37:28;;;;;;;1.2;1.1;;;;;;;9.95;93.70215;934.8989;;;;
2023/10/23 06:39:55;;;;;;;1.2;1.1;;;;;;;9.94;94.52148;934.991;;;;
2023/10/23 06:42:20;;;;;;;3.3;1.9;;;;;;;9.83;93.49219;935.0412;;;;
2023/10/23 06:44:48;;;;;;;2.1;1.6;;;;;;;9.65;95.32422;935.0405;;;;
2023/10/23 06:47:15;;;;;;;2.1;1.4;;;;;;;9.56;96.1582;935.0728;;;;
2023/10/23 06:49:44;;;;;;;1.4;1.3;;;;;;;9.67;95.74023;935.1097;;;;
2023/10/23 06:52:09;;;;;;;1.6;1.2;;;;;;;9.54;95.12891;935.1465;;;;
2023/10/23 06:54:41;;;;;;;1.3;1.2;;;;;;;9.54;95.88086;935.1069;;;;
2023/10/23 06:57:07;;;;;;;1.7;1.4;;;;;;;9.72;95.60156;935.1205;;;;
2023/10/23 06:59:34;;;;;;;2.1;1.6;;;;;;;10.03;94.20996;935.0022;;;;
2023/10/23 07:02:00;;;;;;;2.3;1.5;;;;;;;9.87;93.76465;935.0287;;;;
2023/10/23 07:04:29;;;;;;;2.1;1.5;;;;;;;9.77;94.71191;934.9911;;;;
2023/10/23 07:06:54;;;;;;;1.9;1.4;;;;;;;9.82;94.92871;934.9656;;;;
2023/10/23 07:09:21;;;;;;;1.5;1.4;;;;;;;10.05;94.48828;934.9228;;;;
2023/10/23 07:11:46;;;;;;;1.3;1.2;;;;;;;10.17;93.53418;934.9203;;;;
2023/10/23 07:14:13;;;;;;;1.6;1.5;;;;;;;10.23;93.23828;934.9753;;;;
2023/10/23 07:16:38;;;;;;;1.3;1.2;;;;;;;10.26;93.23242;934.9905;;;;
2023/10/23 07:19:04;;;;;;;1.5;1.4;;;;;;;10.33;93.35059;935.0028;;;;
2023/10/23 07:21:29;;;;;;;1.3;1.2;;;;;;;10.55;92.36035;935.0033;;;;
2023/10/23 07:23:57;;;;;;;1;0.8;;;;;;;10.45;91.68652;935.0809;;;;
2023/10/23 07:26:22;;;;;;;0.9;0.9;;;;;;;10.44;92.1543;935.0928;;;;
2023/10/23 07:28:50;;;;;;;0.9;0.9;;;;;;;10.63;91.37305;935.1035;;;;
2023/10/23 07:31:16;;;;;;;0.8;0.8;;;;;;;10.73;91.23438;935.1181;;;;
2023/10/23 07:33:41;;;;;;;0.9;0.9;;;;;;;10.63;91.57813;935.1313;;;;
2023/10/23 07:36:07;;;;;;;1.3;1;;;;;;;10.64;92.34375;935.0772;;;;
2023/10/23 07:38:35;;;;;;;1.5;1.1;;;;;;;10.87;91.52539;935.0504;;;;
2023/10/23 07:41:06;;;;;;;1.4;1.3;;;;;;;10.81;90.9082;935.0948;;;;
2023/10/23 07:43:31;;;;;;;1.5;1.1;;;;;;;10.85;90.69922;935.0639;;;;
2023/10/23 07:46:00;;;;;;;1;0.9;;;;;;;11.13;90.1875;934.9828;;;;
2023/10/23 07:48:25;;;;;;;1.1;0.8;;;;;;;11.38;88.08594;934.9906;;;;
2023/10/23 07:50:52;;;;;;;1.3;1;;;;;;;11.3;88.02539;935.0151;;;;
2023/10/23 07:53:17;;;;;;;1.1;0.8;;;;;;;11.29;88.24121;934.9849;;;;
2023/10/23 07:55:42;;;;;;;1.5;1.3;;;;;;;11.36;88.34766;934.8925;;;;
2023/10/23 07:58:07;;;;;;;1;1;;;;;;;11.59;87.91211;934.8761;;;;
2023/10/23 08:00:37;;;;;;;1.1;1;;;;;;;11.68;88.20605;934.866;;;;
2023/10/23 08:03:02;;;;;;;0.8;0.8;;;;;;;11.57;87.70313;934.7957;;;;
2023/10/23 08:05:31;;;;;;;2.1;1.1;;;;;;;11.54;87.48926;934.7949;;;;
2023/10/23 08:07:57;;;;;;;0.7;0.7;;;;;;;11.66;86.32422;934.7321;;;;
2023/10/23 08:10:25;;;;;;;1.4;0.7;;;;;;;11.84;85.18066;934.6624;;;;
2023/10/23 08:12:50;;;;;;;0.5;0.5;;;;;;;12.08;82.16797;934.6725;;;;
2023/10/23 08:15:20;;;;;;;1.2;0.7;;;;;;;12.16;82.88184;934.6604;;;;
2023/10/23 08:17:46;;;;;;;1.6;1.3;;;;;;;12.33;82.41016;934.645;;;;
2023/10/23 08:20:15;;;;;;;0.9;0.8;;;;;;;12.46;82.51465;934.6248;;;;
2023/10/23 08:22:42;;;;;;;0.9;0.9;;;;;;;12.62;82.25879;934.5527;;;;
2023/10/23 08:25:08;;;;;;;1.1;1;;;;;;;12.87;81.31934;934.5197;;;;
2023/10/23 08:27:36;;;;;;;2.5;1.5;;;;;;;13.04;80.97266;934.4606;;;;
2023/10/23 08:30:02;;;;;;;1.7;1.5;;;;;;;13.15;80.39551;934.3448;;;;
2023/10/23 08:32:26;;;;;;;1.8;1.3;;;;;;;13.31;80.05566;934.2012;;;;
2023/10/23 08:34:55;;;;;;;0.9;0.9;;;;;;;13.41;78.12207;933.9852;;;;
2023/10/23 08:37:20;;;;;;;1;0.9;;;;;;;13.54;76.54688;933.9836;;;;
2023/10/23 08:39:50;;;;;;;1.4;1;;;;;;;13.88;75.58105;933.8729;;;;
2023/10/23 08:42:15;;;;;;;2.6;1.1;;;;;;;14.37;74.86133;933.8599;;;;
2023/10/23 08:44:40;;;;;;;1.2;1;;;;;;;14.4;71.91797;933.8851;;;;
2023/10/23 08:47:07;;;;;;;1;0.9;;;;;;;14.5;70.05664;933.8957;;;;
2023/10/23 08:49:32;;;;;;;1;0.9;;;;;;;14.69;68.95605;933.8278;;;;
2023/10/23 08:52:05;;;;;;;0.5;0.5;;;;;;;14.82;69.12695;933.7413;;;;
2023/10/23 08:54:33;;;;;;;0.7;0.7;;;;;;;14.88;70.03516;933.7918;;;;
2023/10/23 08:57:03;;;;;;;0.5;0.5;;;;;;;15.08;70.76074;933.8428;;;;
2023/10/23 08:59:28;;;;;;;2.3;0.9;;;;;;;15.2;71.34375;933.9005;;;;
2023/10/23 09:01:53;;;;;;;2.4;1.5;;;;;;;15.31;70.25488;933.8051;;;;
2023/10/23 09:04:21;;;;;;;2.6;1.4;;;;;;;15.11;71.86133;933.8865;;;;
2023/10/23 09:06:52;;;;;;;1.2;1;;;;;;;15.27;71.46094;933.8298;;;;
2023/10/23 09:09:15;;;;;;;0.9;0.6;;;;;;;14.89;72.44727;933.8647;;;;
2023/10/23 09:11:46;;;;;;;1.2;0.7;;;;;;;14.64;74.45703;933.8398;;;;
2023/10/23 09:14:08;;;;;;;0.8;0.8;;;;;;;14.85;73.25781;933.8748;;;;
2023/10/23 09:16:34;;;;;;;0.8;0.6;;;;;;;15.13;72.40625;933.8285;;;;
2023/10/23 09:18:59;;;;;;;0.7;0.6;;;;;;;15.46;71.75781;933.807;;;;
2023/10/23 09:21:26;;;;;;;0.7;0.7;;;;;;;15.62;71.81738;933.8201;;;;
2023/10/23 09:23:51;;;;;;;1.3;0.9;;;;;;;15.85;72.69922;933.9088;;;;
2023/10/23 09:26:19;;;;;;;1.7;0.9;;;;;;;15.92;70.45703;933.8881;;;;
2023/10/23 09:28:45;;;;;;;1.1;1.1;;;;;;;16.02;70.39063;933.8923;;;;
2023/10/23 09:31:09;;;;;;;2;1.1;;;;;;;16.07;69.79883;933.8078;;;;
2023/10/23 09:33:38;;;;;;;0.8;0.8;;;;;;;16.07;68.65332;933.8183;;;;
2023/10/23 09:36:04;;;;;;;1.8;0.9;;;;;;;16.1;68.39355;933.7397;;;;
2023/10/23 09:38:32;;;;;;;1.1;0.9;;;;;;;16.36;68.11035;933.7374;;;;
2023/10/23 09:40:56;;;;;;;0.6;0.6;;;;;;;16.61;66.0625;933.7776;;;;
2023/10/23 09:43:24;;;;;;;0.9;0.8;;;;;;;16.81;65.05176;933.7466;;;;
2023/10/23 09:45:49;;;;;;;1.9;0.9;;;;;;;17.1;64.23633;933.7239;;;;
2023/10/23 09:48:16;;;;;;;1.2;0.7;;;;;;;17.11;59.3584;933.5916;;;;
2023/10/23 09:50:41;;;;;;;0.6;0.6;;;;;;;17.42;61.47559;933.6039;;;;
2023/10/23 09:53:13;;;;;;;0.6;0.6;;;;;;;17.55;59.42871;933.5391;;;;
2023/10/23 09:55:38;;;;;;;1.3;0.6;;;;;;;17.66;58.68945;933.5478;;;;
2023/10/23 09:58:03;;;;;;;0.9;0.7;;;;;;;17.9;57.08496;933.4439;;;;
2023/10/23 10:00:33;;;;;;;0.5;0.5;;;;;;;18.13;56.2666;933.3719;;;;
2023/10/23 10:03:04;;;;;;;0.6;0.5;;;;;;;18.2;56.77539;933.2911;;;;
2023/10/23 10:05:28;;;;;;;1;0.6;;;;;;;18.5;55.97656;933.342;;;;
2023/10/23 10:07:54;;;;;;;0.5;0.5;;;;;;;18.77;53.47363;933.3436;;;;
2023/10/23 10:10:22;;;;;;;1.1;1;;;;;;;18.92;55.14453;933.345;;;;
2023/10/23 10:12:47;;;;;;;0.6;0.6;;;;;;;18.9;53.1416;933.36;;;;
2023/10/23 10:15:12;;;;;;;0.8;0.6;;;;;;;18.98;51.04395;933.3502;;;;
2023/10/23 10:17:37;;;;;;;0.6;0.4;;;;;;;18.77;51.78809;933.3022;;;;
2023/10/23 10:20:08;;;;;;;0.8;0.5;;;;;;;18.76;50.05273;933.1994;;;;
2023/10/23 10:22:37;;;;;;;2;0.7;;;;;;;18.9;52.14063;933.1373;;;;
2023/10/23 10:25:03;;;;;;;1.2;0.5;;;;;;;18.89;52.20801;933.0625;;;;
2023/10/23 10:27:27;;;;;;;0.4;0.4;;;;;;;18.72;53.22461;933.0045;;;;
2023/10/23 10:29:53;;;;;;;0.5;0.5;;;;;;;18.58;53.61426;932.9881;;;;
2023/10/23 10:32:18;;;;;;;0.7;0.7;;;;;;;18.54;54.81934;932.973;;;;
2023/10/23 10:34:43;;;;;;;0.6;0.5;;;;;;;18.66;53.98438;932.8716;;;;
2023/10/23 10:37:09;;;;;;;0.8;0.4;;;;;;;18.81;55.41113;932.7761;;;;
2023/10/23 10:39:40;;;;;;;0.7;0.6;;;;;;;19.14;55.1377;932.7307;;;;
2023/10/23 10:42:09;;;;;;;0.8;0.6;;;;;;;19.36;53.0791;932.6527;;;;
2023/10/23 10:44:31;;;;;;;2.1;0.8;;;;;;;19.42;53.21484;932.5804;;;;
2023/10/23 10:46:56;;;;;;;1.3;0.9;;;;;;;19.64;51.9707;932.5424;;;;
2023/10/23 10:49:23;;;;;;;2.7;1;;;;;;;19.8;54.125;932.5536;;;;
2023/10/23 10:51:48;;;;;;;2.1;1.4;;;;;;;19.83;50.83789;932.5045;;;;
2023/10/23 10:54:19;;;;;;;2.3;1.9;;;;;;;19.79;53.17871;932.5427;;;;
2023/10/23 10:56:45;;;;;;;3.6;2.7;;;;;;;19.73;53.00781;932.5793;;;;
2023/10/23 10:59:12;;;;;;;1.3;0.9;;;;;;;19.59;50.92773;932.6398;;;;
2023/10/23 11:01:42;;;;;;;0.6;0.6;;;;;;;19.43;49.2666;932.6749;;;;
2023/10/23 11:04:17;;;;;;;0.5;0.5;;;;;;;19.21;48.97363;932.6082;;;;
2023/10/23 11:06:45;;;;;;;0.6;0.6;;;;;;;19.29;49.46094;932.5525;;;;
2023/10/23 11:09:11;;;;;;;1.5;0.7;;;;;;;19.38;48.8877;932.5229;;;;
2023/10/23 11:11:35;;;;;;;1.3;0.8;;;;;;;19.54;48.78906;932.4938;;;;
2023/10/23 11:14:03;;;;;;;0.5;0.5;;;;;;;19.64;48.39258;932.291;;;;
2023/10/23 11:16:28;;;;;;;1.1;0.5;;;;;;;19.74;47.95898;932.21;;;;
2023/10/23 11:18:58;;;;;;;0.6;0.5;;;;;;;19.77;46.81934;932.2704;;;;
2023/10/23 11:21:29;;;;;;;0.8;0.7;;;;;;;19.91;47.0918;932.2551;;;;
2023/10/23 11:23:57;;;;;;;0.8;0.7;;;;;;;20.14;48.11914;932.209;;;;
2023/10/23 11:26:22;;;;;;;0.4;0.4;;;;;;;20.32;45.61719;932.0181;;;;
2023/10/23 11:28:51;;;;;;;1.5;0.6;;;;;;;20.65;45.10254;931.9439;;;;
2023/10/23 11:31:16;;;;;;;0.5;0.5;;;;;;;20.69;42.96875;931.9804;;;;
2023/10/23 11:33:43;;;;;;;0.5;0.4;;;;;;;21.86;40.62207;932.0072;;;;
2023/10/23 11:36:08;;;;;;;0.7;0.5;;;;;;;21.99;39.47266;932.0266;;;;
2023/10/23 11:38:35;;;;;;;0.7;0.5;;;;;;;21.81;40.88672;932.0325;;;;
2023/10/23 11:41:00;;;;;;;0.7;0.6;;;;;;;21.89;41.62012;931.9717;;;;
2023/10/23 11:43:31;;;;;;;0.6;0.5;;;;;;;23.85;39.83887;931.9734;;;;
2023/10/23 11:45:59;;;;;;;0.4;0.4;;;;;;;26.2;32.87891;931.9817;;;;
2023/10/23 11:48:25;;;;;;;1.1;0.5;;;;;;;28.74;29.87695;931.8862;;;;
2023/10/23 11:50:52;;;;;;;0.5;0.3;;;;;;;28.12;28.40918;931.7555;;;;
2023/10/23 11:53:18;;;;;;;0.9;0.6;;;;;;;26.55;31.75586;931.8309;;;;
2023/10/23 11:55:42;;;;;;;0.4;0.4;;;;;;;28.56;28.99609;931.7957;;;;
2023/10/23 11:58:08;;;;;;;1.1;0.6;;;;;;;32.06;25.00195;931.802;;;;
2023/10/23 12:00:34;;;;;;;0.9;0.5;;;;;;;30.85;25.73633;931.8005;;;;
2023/10/23 12:03:04;;;;;;;0.7;0.6;;;;;;;32.3;25.11133;931.8448;;;;
2023/10/23 12:05:32;;;;;;;0.7;0.5;;;;;;;30.54;26.5791;931.7322;;;;
2023/10/23 12:07:58;;;;;;;0.7;0.6;;;;;;;31.31;26.71973;931.788;;;;
2023/10/23 12:10:22;;;;;;;0.6;0.4;;;;;;;30.32;26.20801;931.7834;;;;
2023/10/23 12:12:52;;;;;;;0.5;0.5;;;;;;;29.48;26.44531;931.8141;;;;
2023/10/23 12:15:14;;;;;;;1;0.5;;;;;;;29.62;26.7041;931.7464;;;;
2023/10/23 12:17:39;;;;;;;0.6;0.6;;;;;;;29.32;26.29297;931.8125;;;;
2023/10/23 12:20:10;;;;;;;0.5;0.4;;;;;;;30.57;25.45801;931.8696;;;;
2023/10/23 12:22:39;;;;;;;0.5;0.5;;;;;;;32.02;24.62891;931.8097;;;;
2023/10/23 12:25:05;;;;;;;0.6;0.6;;;;;;;31.23;25.29199;931.7659;;;;
2023/10/23 12:27:30;;;;;;;0.4;0.4;;;;;;;30.96;25.79102;931.7635;;;;
2023/10/23 12:29:57;;;;;;;0.7;0.6;;;;;;;30.29;25.97949;931.6905;;;;
2023/10/23 12:32:23;;;;;;;0.4;0.4;;;;;;;30.42;26.94238;931.5822;;;;
2023/10/23 12:34:48;;;;;;;0.5;0.5;;;;;;;30.83;25.87891;931.5984;;;;
2023/10/23 12:37:17;;;;;;;1.5;0.5;;;;;;;31.93;24.1084;931.5616;;;;
2023/10/23 12:39:42;;;;;;;0.7;0.5;;;;;;;31.32;25.10547;931.5047;;;;
2023/10/23 12:42:10;;;;;;;0.7;0.5;;;;;;;30.32;26.69824;931.4833;;;;
2023/10/23 12:44:36;;;;;;;1.2;0.8;;;;;;;28.6;27.59473;931.3775;;;;
2023/10/23 12:47:03;;;;;;;0.5;0.5;;;;;;;27.05;28.15137;931.4777;;;;
2023/10/23 12:49:28;;;;;;;0.6;0.4;;;;;;;27.08;29.08984;931.4306;;;;
2023/10/23 12:51:57;;;;;;;2.3;0.5;;;;;;;28.02;30.05469;931.2717;;;;
2023/10/23 12:54:22;;;;;;;0.5;0.5;;;;;;;28.41;29.33105;931.2333;;;;
2023/10/23 12:56:47;;;;;;;0.6;0.6;;;;;;;27.9;27.87305;931.1447;;;;
2023/10/23 12:59:14;;;;;;;1.6;0.6;;;;;;;27.85;29.21191;931.1102;;;;
2023/10/23 13:01:41;;;;;;;0.4;0.4;;;;;;;27.78;29.6582;931.0935;;;;
2023/10/23 13:04:05;;;;;;;1.7;0.6;;;;;;;28.09;28.74023;931.0998;;;;
2023/10/23 13:06:31;;;;;;;0.5;0.5;;;;;;;28.43;27.72656;931.0986;;;;
2023/10/23 13:08:56;;;;;;;0.6;0.5;;;;;;;28.84;27.0498;931.0419;;;;
2023/10/23 13:11:22;;;;;;;0.5;0.4;;;;;;;28.6;29.2832;931.0176;;;;
2023/10/23 13:13:50;;;;;;;2.1;0.7;;;;;;;28.48;32.46387;931.0284;;;;
2023/10/23 13:16:16;;;;;;;2;0.7;;;;;;;29.33;31.17773;931.046;;;;
2023/10/23 13:18:45;;;;;;;2;0.7;;;;;;;29.41;31.41016;931.0776;;;;
2023/10/23 13:21:10;;;;;;;1.5;0.6;;;;;;;29.45;31.62695;931.0447;;;;
2023/10/23 13:23:37;;;;;;;0.6;0.6;;;;;;;29.25;32.53125;931.0731;;;;
2023/10/23 13:26:03;;;;;;;1;0.7;;;;;;;27.98;34.00684;931.0588;;;;
2023/10/23 13:28:32;;;;;;;0.8;0.7;;;;;;;27.89;33.34668;931.0854;;;;
2023/10/23 13:30:59;;;;;;;0.8;0.6;;;;;;;28.33;33.85547;930.9881;;;;
2023/10/23 13:33:24;;;;;;;2.2;0.7;;;;;;;27.39;36.02637;930.8945;;;;
2023/10/23 13:35:54;;;;;;;0.6;0.6;;;;;;;26.82;37.53223;930.8805;;;;
2023/10/23 13:38:19;;;;;;;0.5;0.5;;;;;;;26.8;37.66211;930.7785;;;;
2023/10/23 13:40:47;;;;;;;0.7;0.7;;;;;;;26.1;38.57324;930.7674;;;;
2023/10/23 13:43:12;;;;;;;1.2;0.6;;;;;;;25.46;40.30078;930.7048;;;;
2023/10/23 13:45:39;;;;;;;0.6;0.6;;;;;;;26.03;38.03516;930.7302;;;;
2023/10/23 13:48:04;;;;;;;0.7;0.5;;;;;;;26.2;37.6582;930.6918;;;;
2023/10/23 13:50:33;;;;;;;0.5;0.5;;;;;;;26.74;37.28906;930.6414;;;;
2023/10/23 13:52:56;;;;;;;1.3;0.6;;;;;;;27.02;37.71582;930.5637;;;;
2023/10/23 13:55:23;;;;;;;0.9;0.6;;;;;;;26.96;37.16504;930.5942;;;;
2023/10/23 13:57:48;;;;;;;1.5;0.7;;;;;;;26.45;40.23633;930.5861;;;;
2023/10/23 14:00:18;;;;;;;0.8;0.8;;;;;;;27.23;38.31348;930.5101;;;;
2023/10/23 14:02:45;;;;;;;1.1;0.8;;;;;;;28.38;34.8584;930.4342;;;;
2023/10/23 14:05:10;;;;;;;0.8;0.8;;;;;;;26.92;38.21582;930.3953;;;;
2023/10/23 14:07:39;;;;;;;0.4;0.4;;;;;;;27.11;37.97266;930.3497;;;;
2023/10/23 14:10:04;;;;;;;0.7;0.6;;;;;;;26.57;39.63184;930.3867;;;;
2023/10/23 14:12:32;;;;;;;0.7;0.7;;;;;;;27.43;37.08594;930.2905;;;;
2023/10/23 14:14:57;;;;;;;0.8;0.6;;;;;;;27.79;37.64844;930.1735;;;;
2023/10/23 14:17:27;;;;;;;1.4;0.8;;;;;;;28.18;36.50586;930.2271;;;;
2023/10/23 14:19:54;;;;;;;2.9;0.8;;;;;;;27.47;37.62305;930.2292;;;;
2023/10/23 14:22:19;;;;;;;1.1;0.9;;;;;;;27.63;37.49316;930.2814;;;;
2023/10/23 14:24:47;;;;;;;0.7;0.6;;;;;;;25.93;39.25586;930.2339;;;;
2023/10/23 14:27:11;;;;;;;1.4;0.7;;;;;;;26.68;39.23828;930.187;;;;
2023/10/23 14:29:42;;;;;;;1;0.6;;;;;;;27.41;37.58203;930.1912;;;;
2023/10/23 14:32:04;;;;;;;1.4;0.7;;;;;;;27.8;36.80762;930.23;;;;
2023/10/23 14:34:30;;;;;;;1.7;0.9;;;;;;;27.63;37.39844;930.1819;;;;
2023/10/23 14:36:55;;;;;;;1.9;0.7;;;;;;;26.98;38.62402;930.0578;;;;
2023/10/23 14:39:20;;;;;;;0.7;0.7;;;;;;;26.54;37.81738;930.0922;;;;
2023/10/23 14:41:49;;;;;;;1;0.5;;;;;;;25.5;40.29297;930.1199;;;;
2023/10/23 14:44:14;;;;;;;2.1;0.8;;;;;;;24.2;43.17969;930.0625;;;;
2023/10/23 14:46:43;;;;;;;1.4;0.6;;;;;;;24.4;43.20996;930.0522;;;;
2023/10/23 14:49:11;;;;;;;2.7;0.9;;;;;;;24.47;43.54688;930.0151;;;;
2023/10/23 14:51:37;;;;;;;1.3;0.7;;;;;;;23.44;44.9873;929.99;;;;
2023/10/23 14:54:05;;;;;;;0.8;0.8;;;;;;;23.55;46.80859;930.0159;;;;
2023/10/23 14:56:30;;;;;;;1.8;1.2;;;;;;;22.86;49.84863;929.9895;;;;
2023/10/23 14:58:57;;;;;;;2.2;1.3;;;;;;;22.33;50.15234;929.9595;;;;
2023/10/23 15:01:23;;;;;;;1.5;1.2;;;;;;;21.89;50.79492;929.8644;;;;
2023/10/23 15:03:55;;;;;;;1.4;1.1;;;;;;;21.76;51.13184;929.8497;;;;
2023/10/23 15:06:17;;;;;;;2.2;1.2;;;;;;;21.21;54.55371;929.8926;;;;
2023/10/23 15:08:45;;;;;;;1.7;0.9;;;;;;;20.09;59.72559;929.8667;;;;
2023/10/23 15:11:10;;;;;;;1.2;0.9;;;;;;;19.76;60.21875;929.8477;;;;
2023/10/23 15:13:39;;;;;;;1.8;0.9;;;;;;;19.87;60.07129;929.8387;;;;
2023/10/23 15:16:04;;;;;;;4.1;1.7;;;;;;;19.85;59.92773;929.8324;;;;
2023/10/23 15:18:29;;;;;;;2.7;1.4;;;;;;;19.52;61.16406;929.7614;;;;
2023/10/23 15:20:58;;;;;;;4.9;1.8;;;;;;;19.14;62.52051;929.6772;;;;
2023/10/23 15:23:25;;;;;;;2.9;2;;;;;;;18.98;63.17383;929.6934;;;;
2023/10/23 15:25:54;;;;;;;1.2;1.1;;;;;;;18.53;64.24902;929.7749;;;;
2023/10/23 15:28:19;;;;;;;1.9;1.1;;;;;;;18.23;66.55176;929.7469;;;;
2023/10/23 15:30:50;;;;;;;2;1.1;;;;;;;17.95;67.85645;929.774;;;;
2023/10/23 15:33:11;;;;;;;3.2;2.1;;;;;;;17.96;66.23145;929.7022;;;;
2023/10/23 15:35:39;;;;;;;1.9;1.6;;;;;;;18.07;65.64551;929.6101;;;;
2023/10/23 15:38:04;;;;;;;2.3;1.3;;;;;;;17.81;66.37305;929.6294;;;;